Time;durP1;ratioP1;P1;durP2;ratioP2;P2;SDS_P1;SDS_P2;PMS_P1;PMS_P2;Temp;Humidity;BMP_temperature;BMP_pressure;BME280_temperature;BME280_humidity;BME280_pressure;Samples;Min_cycle;Max_cycle;Signal;HPM_P1;HPM_P2
2022/12/04 00:01:09;;;;;;;;;;;;;;;7.59;100.00;100986.44;5049617;28;19936;-77
2022/12/04 00:03:35;;;;;;;;;;;;;;;7.45;100.00;100978.31;5048892;28;19916;-77
2022/12/04 00:06:04;;;;;;;;;;;;;;;7.54;100.00;100981.13;5049126;28;19959;-77
2022/12/04 00:08:29;;;;;;;;;;;;;;;7.55;100.00;100975.00;5043528;28;19943;-77
2022/12/04 00:10:55;;;;;;;;;;;;;;;7.64;100.00;100977.78;5040863;28;19985;-78
2022/12/04 00:13:20;;;;;;;;;;;;;;;7.75;100.00;100983.22;5049337;28;20646;-77
2022/12/04 00:15:45;;;;;;;;;;;;;;;7.48;100.00;100974.00;5049272;28;19924;-76
2022/12/04 00:18:10;;;;;;;;;;;;;;;7.44;100.00;100977.41;5048724;28;19917;-77
2022/12/04 00:20:39;;;;;;;;;;;;;;;7.47;100.00;100984.47;5049021;28;20445;-77
2022/12/04 00:23:04;;;;;;;;;;;;;;;7.38;100.00;100989.56;5049543;28;19951;-77
2022/12/04 00:25:29;;;;;;;;;;;;;;;7.59;100.00;100989.06;5048366;28;19982;-77
2022/12/04 00:27:55;;;;;;;;;;;;;;;7.49;100.00;100988.00;5049170;28;19916;-78
2022/12/04 00:30:20;;;;;;;;;;;;;;;7.40;100.00;100987.84;5049172;28;20294;-78
2022/12/04 00:32:45;;;;;;;;;;;;;;;7.29;100.00;100990.25;5048344;28;19916;-77
2022/12/04 00:35:10;;;;;;;;;;;;;;;7.36;100.00;100989.53;5049146;28;19936;-77
2022/12/04 00:37:36;;;;;;;;;;;;;;;7.25;100.00;100985.81;5048480;28;20334;-77
2022/12/04 00:40:01;;;;;;;;;;;;;;;7.31;100.00;100984.19;5048517;28;19956;-77
2022/12/04 00:42:27;;;;;;;;;;;;;;;7.20;100.00;100990.09;5047516;28;19920;-78
2022/12/04 00:44:52;;;;;;;;;;;;;;;7.15;100.00;100983.03;5048768;28;19923;-77
2022/12/04 00:47:17;;;;;;;;;;;;;;;7.17;100.00;100986.56;5048252;28;20015;-77
2022/12/04 00:49:42;;;;;;;;;;;;;;;7.14;100.00;100980.38;5049182;28;20388;-77
2022/12/04 00:52:08;;;;;;;;;;;;;;;7.26;100.00;100975.34;5048356;28;20443;-77
2022/12/04 00:54:33;;;;;;;;;;;;;;;7.34;100.00;100975.50;5042815;28;19921;-77
2022/12/04 00:56:58;;;;;;;;;;;;;;;7.23;100.00;100979.66;5044090;28;19925;-77
2022/12/04 00:59:23;;;;;;;;;;;;;;;7.29;100.00;100977.13;5047848;28;20317;-77
2022/12/04 01:01:49;;;;;;;;;;;;;;;7.38;100.00;100979.94;5048676;28;19977;-77
2022/12/04 01:04:14;;;;;;;;;;;;;;;7.38;100.00;100971.19;5048443;28;19995;-78
2022/12/04 01:06:39;;;;;;;;;;;;;;;7.34;100.00;100971.13;5047404;28;19916;-78
2022/12/04 01:09:05;;;;;;;;;;;;;;;7.22;100.00;100970.03;5047870;28;19978;-77
2022/12/04 01:11:31;;;;;;;;;;;;;;;7.13;100.00;100965.47;5047974;28;19917;-77
2022/12/04 01:13:57;;;;;;;;;;;;;;;7.09;100.00;100972.41;5046843;28;20382;-78
2022/12/04 01:16:24;;;;;;;;;;;;;;;7.27;100.00;100966.59;5048358;28;19916;-77
2022/12/04 01:18:49;;;;;;;;;;;;;;;7.16;100.00;100965.53;5047777;28;19916;-77
2022/12/04 01:21:15;;;;;;;;;;;;;;;7.18;100.00;100966.44;5047862;28;20669;-77
2022/12/04 01:23:41;;;;;;;;;;;;;;;7.11;100.00;100969.81;5048020;28;19982;-77
2022/12/04 01:26:06;;;;;;;;;;;;;;;7.05;100.00;100972.31;5048024;28;19916;-76
2022/12/04 01:28:32;;;;;;;;;;;;;;;7.09;100.00;100969.78;5047532;28;19916;-78
2022/12/04 01:30:58;;;;;;;;;;;;;;;7.22;100.00;100972.66;5045700;28;19924;-77
2022/12/04 01:33:23;;;;;;;;;;;;;;;7.10;100.00;100974.16;5045435;28;19960;-78
2022/12/04 01:35:52;;;;;;;;;;;;;;;7.26;100.00;100970.09;5046258;28;20025;-78
2022/12/04 01:38:17;;;;;;;;;;;;;;;7.27;100.00;100974.47;5046781;28;19912;-78
2022/12/04 01:40:43;;;;;;;;;;;;;;;7.19;100.00;100981.34;5042003;28;19932;-77
2022/12/04 01:43:11;;;;;;;;;;;;;;;7.13;100.00;100974.22;5026995;28;19992;-77
2022/12/04 01:45:38;;;;;;;;;;;;;;;7.24;100.00;100979.66;5045764;28;19939;-79
2022/12/04 01:48:15;;;;;;;;;;;;;;;7.40;100.00;100970.38;5046704;28;19919;-78
2022/12/04 01:50:41;;;;;;;;;;;;;;;7.18;100.00;100982.19;5030046;28;20341;-77
2022/12/04 01:53:06;;;;;;;;;;;;;;;7.27;100.00;100977.09;5047658;28;19917;-79
2022/12/04 01:55:32;;;;;;;;;;;;;;;7.27;100.00;100978.84;5047646;28;20074;-78
2022/12/04 01:57:57;;;;;;;;;;;;;;;7.11;100.00;100972.44;5047550;28;19921;-77
2022/12/04 02:00:23;;;;;;;;;;;;;;;7.16;100.00;100969.03;5047694;28;20345;-78
2022/12/04 02:02:48;;;;;;;;;;;;;;;7.12;100.00;100964.59;5047400;28;20004;-77
2022/12/04 02:05:15;;;;;;;;;;;;;;;7.12;100.00;100969.84;5046852;28;19955;-77
2022/12/04 02:07:43;;;;;;;;;;;;;;;7.06;100.00;100968.81;5047678;28;19928;-78
2022/12/04 02:10:10;;;;;;;;;;;;;;;7.01;100.00;100962.59;5029223;28;20294;-78
2022/12/04 02:12:35;;;;;;;;;;;;;;;6.93;100.00;100968.56;5029689;28;20035;-78
2022/12/04 02:15:20;;;;;;;;;;;;;;;6.88;100.00;100964.97;5047525;28;20090;-78
2022/12/04 02:17:45;;;;;;;;;;;;;;;6.86;100.00;100971.94;5047594;28;19909;-77
2022/12/04 02:20:29;;;;;;;;;;;;;;;7.09;100.00;100967.16;5047711;28;19923;-77
2022/12/04 02:23:12;;;;;;;;;;;;;;;6.99;100.00;100968.69;5047414;28;19917;-76
2022/12/04 02:25:53;;;;;;;;;;;;;;;6.95;100.00;100964.25;5047811;28;19920;-77
2022/12/04 02:28:23;;;;;;;;;;;;;;;6.94;100.00;100966.84;5047336;28;19964;-77
2022/12/04 02:30:50;;;;;;;;;;;;;;;7.14;100.00;100967.25;5029252;28;19921;-77
2022/12/04 02:33:15;;;;;;;;;;;;;;;7.03;100.00;100963.50;5047379;28;19923;-77
2022/12/04 02:35:51;;;;;;;;;;;;;;;7.16;100.00;100965.53;5047392;28;19921;-77
2022/12/04 02:38:21;;;;;;;;;;;;;;;7.32;100.00;100969.31;5047276;28;19921;-77
2022/12/04 02:40:58;;;;;;;;;;;;;;;7.46;100.00;100972.19;5029218;28;20353;-77
2022/12/04 02:43:26;;;;;;;;;;;;;;;7.64;100.00;100975.16;5046658;28;19923;-76
2022/12/04 02:46:04;;;;;;;;;;;;;;;7.51;100.00;100973.19;5047020;28;20017;-78
2022/12/04 02:48:31;;;;;;;;;;;;;;;7.37;100.00;100970.31;5047419;28;19939;-76
2022/12/04 02:50:58;;;;;;;;;;;;;;;7.48;100.00;100968.75;5046892;28;19920;-77
2022/12/04 02:53:32;;;;;;;;;;;;;;;7.33;100.00;100971.97;5046565;28;19924;-78
2022/12/04 02:56:07;;;;;;;;;;;;;;;7.35;100.00;100966.75;5046926;28;19917;-77
2022/12/04 02:58:35;;;;;;;;;;;;;;;7.58;100.00;100961.91;5047974;28;19970;-78
2022/12/04 03:01:18;;;;;;;;;;;;;;;7.58;99.55;100968.91;5046688;28;19927;-77
2022/12/04 03:03:45;;;;;;;;;;;;;;;7.32;100.00;100969.31;5046807;28;19991;-77
2022/12/04 03:06:11;;;;;;;;;;;;;;;7.25;100.00;100984.06;5047132;28;19913;-77
2022/12/04 03:08:41;;;;;;;;;;;;;;;7.21;100.00;100978.75;5046608;28;19924;-77
2022/12/04 03:11:06;;;;;;;;;;;;;;;7.25;100.00;100975.31;5040581;28;19924;-76
2022/12/04 03:13:37;;;;;;;;;;;;;;;7.30;100.00;100971.91;5046885;28;19916;-77
2022/12/04 03:16:11;;;;;;;;;;;;;;;7.35;100.00;100969.38;5046704;28;19917;-78
2022/12/04 03:18:42;;;;;;;;;;;;;;;7.29;100.00;100961.38;5047182;28;19920;-77
2022/12/04 03:21:12;;;;;;;;;;;;;;;7.14;100.00;100964.63;5046885;28;19931;-78
2022/12/04 03:23:43;;;;;;;;;;;;;;;7.21;100.00;100969.13;5046889;28;19920;-77
2022/12/04 03:26:08;;;;;;;;;;;;;;;7.14;100.00;100965.50;5046957;28;19921;-78
2022/12/04 03:28:41;;;;;;;;;;;;;;;7.19;100.00;100967.34;5046766;28;19916;-79
2022/12/04 03:31:08;;;;;;;;;;;;;;;7.13;100.00;100963.72;5050030;28;19921;-78
2022/12/04 03:33:37;;;;;;;;;;;;;;;7.08;100.00;100964.50;5050507;28;19913;-78
2022/12/04 03:36:12;;;;;;;;;;;;;;;7.21;100.00;100957.75;5032025;28;20472;-78
2022/12/04 03:38:45;;;;;;;;;;;;;;;7.09;100.00;100967.16;5050678;28;19917;-78
2022/12/04 03:41:30;;;;;;;;;;;;;;;7.03;100.00;100971.38;5030485;28;19921;-77
2022/12/04 03:44:07;;;;;;;;;;;;;;;6.92;100.00;100964.19;5048914;28;19921;-78
2022/12/04 03:47:05;;;;;;;;;;;;;;;7.00;100.00;100969.59;5050115;28;19921;-77
2022/12/04 03:49:43;;;;;;;;;;;;;;;6.99;100.00;100968.69;4995298;28;19916;-78
2022/12/04 03:52:16;;;;;;;;;;;;;;;6.98;100.00;100966.03;5050477;28;19917;-78
2022/12/04 03:54:50;;;;;;;;;;;;;;;7.01;100.00;100973.09;5050067;28;20372;-79
2022/12/04 03:57:19;;;;;;;;;;;;;;;7.07;100.00;100973.22;5050583;28;19917;-79
2022/12/04 03:59:56;;;;;;;;;;;;;;;7.26;100.00;100969.19;5050287;28;19917;-79
2022/12/04 04:02:23;;;;;;;;;;;;;;;7.11;100.00;100975.06;5049452;28;19920;-78
2022/12/04 04:04:50;;;;;;;;;;;;;;;6.97;100.00;100978.28;5049918;28;19994;-79
2022/12/04 04:07:21;;;;;;;;;;;;;;;6.99;100.00;100971.31;5049957;28;19978;-78
2022/12/04 04:09:47;;;;;;;;;;;;;;;6.90;100.00;100971.13;5050324;28;19955;-77
2022/12/04 04:12:16;;;;;;;;;;;;;;;6.96;100.00;100970.38;5049775;28;20387;-77
2022/12/04 04:25:50;;;;;;;;;;;;;;;6.92;100.00;100968.53;5049733;28;19927;-78
2022/12/04 04:28:26;;;;;;;;;;;;;;;7.06;100.00;100981.94;5048294;28;19935;-78
2022/12/04 04:30:53;;;;;;;;;;;;;;;7.28;100.00;100978.00;5049576;28;19916;-78
2022/12/04 04:33:20;;;;;;;;;;;;;;;7.14;100.00;100969.88;5049270;28;19925;-77
2022/12/04 04:35:54;;;;;;;;;;;;;;;7.04;100.00;100979.28;5049436;28;20390;-77
2022/12/04 04:38:30;;;;;;;;;;;;;;;7.05;100.00;100982.81;5049052;28;19908;-77
2022/12/04 04:41:04;;;;;;;;;;;;;;;7.10;100.00;100979.41;5047367;28;19921;-78
2022/12/04 04:43:42;;;;;;;;;;;;;;;6.90;100.00;100986.88;5049546;28;19921;-78
2022/12/04 04:46:16;;;;;;;;;;;;;;;7.07;100.00;100987.22;5031335;28;19912;-77
2022/12/04 04:48:47;;;;;;;;;;;;;;;7.06;100.00;100989.81;5049184;28;19920;-78
2022/12/04 04:51:12;;;;;;;;;;;;;;;6.99;100.00;100984.44;5048441;28;19916;-78
2022/12/04 04:53:41;;;;;;;;;;;;;;;6.94;100.00;100983.47;5049170;28;19921;-78
2022/12/04 04:56:06;;;;;;;;;;;;;;;7.01;100.00;100981.84;5049100;28;19919;-77
2022/12/04 04:58:32;;;;;;;;;;;;;;;6.95;100.00;100990.50;5030576;28;19917;-77
2022/12/04 05:01:02;;;;;;;;;;;;;;;6.92;100.00;100997.41;5049135;28;19917;-77
2022/12/04 05:03:28;;;;;;;;;;;;;;;6.89;100.00;101002.56;5048624;28;19928;-78
2022/12/04 05:05:53;;;;;;;;;;;;;;;6.94;100.00;101006.22;5048828;28;19916;-78
2022/12/04 05:08:18;;;;;;;;;;;;;;;7.16;99.69;100997.03;5048432;28;20020;-78
2022/12/04 05:10:44;;;;;;;;;;;;;;;7.24;97.80;101010.28;5048834;28;19917;-78
2022/12/04 05:13:13;;;;;;;;;;;;;;;7.12;98.80;101009.22;5048345;28;20311;-78
2022/12/04 05:15:38;;;;;;;;;;;;;;;6.98;98.94;101005.41;5048551;28;19913;-77
2022/12/04 05:18:04;;;;;;;;;;;;;;;7.19;99.31;101007.56;5048778;28;19920;-77
2022/12/04 05:20:29;;;;;;;;;;;;;;;7.30;98.01;101007.78;5048910;28;19920;-77
2022/12/04 05:22:55;;;;;;;;;;;;;;;7.39;96.61;101020.22;5048460;28;19956;-78
2022/12/04 05:25:20;;;;;;;;;;;;;;;7.25;96.68;101018.19;5048649;28;19921;-78
2022/12/04 05:27:45;;;;;;;;;;;;;;;7.10;98.06;101016.13;5048636;28;19982;-78
2022/12/04 05:30:11;;;;;;;;;;;;;;;7.34;97.24;101012.25;5048326;28;20006;-78
2022/12/04 05:32:36;;;;;;;;;;;;;;;7.29;97.27;101014.78;5048065;28;19912;-77
2022/12/04 05:35:02;;;;;;;;;;;;;;;7.03;98.18;101013.34;5048541;28;19924;-78
2022/12/04 05:37:27;;;;;;;;;;;;;;;6.92;98.62;101013.13;5030411;28;20003;-78
2022/12/04 05:39:52;;;;;;;;;;;;;;;6.92;99.61;101019.28;5047067;28;20318;-77
2022/12/04 05:42:18;;;;;;;;;;;;;;;6.96;99.13;101028.09;5047948;28;19925;-77
2022/12/04 05:44:43;;;;;;;;;;;;;;;7.03;99.19;101032.63;5048060;28;20313;-77
2022/12/04 05:47:08;;;;;;;;;;;;;;;6.87;99.26;101033.16;5047516;28;19978;-78
2022/12/04 05:49:34;;;;;;;;;;;;;;;7.05;99.13;101032.66;5048357;28;20416;-78
2022/12/04 05:52:03;;;;;;;;;;;;;;;7.21;97.58;101034.72;5048212;28;19921;-78
2022/12/04 05:54:28;;;;;;;;;;;;;;;7.07;97.70;101033.56;5047758;28;19922;-79
2022/12/04 05:56:54;;;;;;;;;;;;;;;7.01;98.20;101033.44;5048006;28;19916;-77
2022/12/04 05:59:19;;;;;;;;;;;;;;;7.14;97.93;101024.97;5047242;28;19917;-78
2022/12/04 06:01:45;;;;;;;;;;;;;;;7.26;97.23;101022.59;5047086;28;19920;-78
2022/12/04 06:04:10;;;;;;;;;;;;;;;7.17;97.59;101035.53;5047357;28;20317;-78
2022/12/04 06:06:36;;;;;;;;;;;;;;;7.28;96.91;101035.75;5023848;28;19921;-78
2022/12/04 06:09:01;;;;;;;;;;;;;;;7.28;96.74;101039.25;5037072;28;20326;-78
2022/12/04 06:11:28;;;;;;;;;;;;;;;7.48;96.10;101039.66;5039753;28;20685;-77
2022/12/04 06:13:53;;;;;;;;;;;;;;;7.32;95.89;101037.56;5047546;28;20333;-78
2022/12/04 06:16:21;;;;;;;;;;;;;;;7.29;96.38;101037.50;5047531;28;19955;-78
2022/12/04 06:18:50;;;;;;;;;;;;;;;7.22;96.29;101047.00;5046595;28;19920;-77
2022/12/04 06:21:16;;;;;;;;;;;;;;;7.12;96.52;101052.91;5029211;28;19975;-76
2022/12/04 06:23:41;;;;;;;;;;;;;;;7.24;96.79;101060.16;5047452;28;19916;-76
2022/12/04 06:26:07;;;;;;;;;;;;;;;7.12;97.01;101055.53;5047558;28;19912;-77
2022/12/04 06:28:33;;;;;;;;;;;;;;;7.21;97.66;101060.97;5046919;28;20434;-77
2022/12/04 06:31:02;;;;;;;;;;;;;;;7.35;96.70;101059.53;5047607;28;19916;-77
2022/12/04 06:33:27;;;;;;;;;;;;;;;7.20;96.84;101061.84;5047043;28;20014;-77
2022/12/04 06:35:59;;;;;;;;;;;;;;;7.25;97.27;101057.56;5046771;28;19960;-79
2022/12/04 06:38:24;;;;;;;;;;;;;;;7.24;96.67;101058.41;5047559;28;20283;-78
2022/12/04 06:40:50;;;;;;;;;;;;;;;7.19;96.94;101062.69;5047689;28;19947;-76
2022/12/04 06:43:15;;;;;;;;;;;;;;;7.11;97.60;101059.03;5046314;28;19913;-76
2022/12/04 06:45:40;;;;;;;;;;;;;;;6.85;99.26;101069.84;5047281;28;20340;-78
2022/12/04 06:48:06;;;;;;;;;;;;;;;6.91;99.06;101072.59;5040337;28;19923;-77
2022/12/04 06:50:31;;;;;;;;;;;;;;;6.83;100.00;101071.56;5035636;28;19916;-77
2022/12/04 06:52:56;;;;;;;;;;;;;;;7.05;100.00;101064.16;5046027;28;19986;-77
2022/12/04 06:55:21;;;;;;;;;;;;;;;7.02;99.18;101045.72;5042983;28;19927;-77
2022/12/04 06:57:47;;;;;;;;;;;;;;;6.93;99.79;101049.03;5041004;28;19916;-76
2022/12/04 07:00:12;;;;;;;;;;;;;;;6.88;99.91;101054.16;5037663;28;20358;-77
2022/12/04 07:02:37;;;;;;;;;;;;;;;6.82;100.00;101059.28;5007078;28;20015;-76
2022/12/04 07:05:03;;;;;;;;;;;;;;;6.77;100.00;101059.19;5033389;28;20023;-76
2022/12/04 07:07:28;;;;;;;;;;;;;;;6.71;100.00;101060.78;5046671;28;19917;-77
2022/12/04 07:09:53;;;;;;;;;;;;;;;6.82;100.00;101060.16;5043066;28;20379;-76
2022/12/04 07:12:19;;;;;;;;;;;;;;;6.91;100.00;101058.59;5044104;28;19921;-76
2022/12/04 07:14:44;;;;;;;;;;;;;;;6.90;100.00;101069.94;5036291;28;19967;-77
2022/12/04 07:17:09;;;;;;;;;;;;;;;6.82;100.00;101067.16;5050151;28;19978;-77
2022/12/04 07:19:35;;;;;;;;;;;;;;;7.11;99.82;101064.28;5036418;28;19990;-78
2022/12/04 07:22:01;;;;;;;;;;;;;;;7.06;99.09;101066.81;5023201;28;19921;-77
2022/12/04 07:24:26;;;;;;;;;;;;;;;6.91;99.87;101059.47;5044972;28;19917;-77
2022/12/04 07:26:51;;;;;;;;;;;;;;;6.93;100.00;101075.25;5043333;28;19921;-77
2022/12/04 07:29:16;;;;;;;;;;;;;;;7.01;99.02;101080.66;5042116;28;19966;-77
2022/12/04 07:31:43;;;;;;;;;;;;;;;7.02;99.57;101088.56;5050242;28;19916;-77
2022/12/04 07:34:08;;;;;;;;;;;;;;;7.08;98.86;101083.47;5035697;28;19921;-77
2022/12/04 07:36:33;;;;;;;;;;;;;;;7.04;99.10;101075.50;5034826;28;19974;-77
2022/12/04 07:38:59;;;;;;;;;;;;;;;7.11;99.34;101064.28;5043012;28;19921;-77
2022/12/04 07:41:24;;;;;;;;;;;;;;;7.04;99.53;101071.13;5048426;28;19927;-77
2022/12/04 07:43:49;;;;;;;;;;;;;;;7.25;98.74;101073.31;5031658;28;19917;-77
2022/12/04 07:46:20;;;;;;;;;;;;;;;7.11;98.08;101074.78;5040708;28;19999;-77
2022/12/04 07:48:45;;;;;;;;;;;;;;;7.08;99.11;101069.47;5049998;28;20397;-77
2022/12/04 07:51:12;;;;;;;;;;;;;;;7.13;98.80;101070.44;5048873;28;19921;-76
2022/12/04 07:53:39;;;;;;;;;;;;;;;7.22;99.27;101075.00;5030274;28;19924;-76
2022/12/04 07:56:04;;;;;;;;;;;;;;;7.33;98.36;101084.84;5045795;28;20681;-76
2022/12/04 07:58:30;;;;;;;;;;;;;;;7.16;98.81;101076.63;5040727;28;19917;-76
2022/12/04 08:01:03;;;;;;;;;;;;;;;7.19;98.58;101075.81;5049190;28;19913;-76
2022/12/04 08:03:28;;;;;;;;;;;;;;;7.03;99.07;101077.25;5049746;28;19920;-77
2022/12/04 08:05:59;;;;;;;;;;;;;;;6.95;100.00;101082.31;5033811;28;19967;-76
2022/12/04 08:08:26;;;;;;;;;;;;;;;7.05;100.00;101082.53;5031128;28;19919;-77
2022/12/04 08:10:51;;;;;;;;;;;;;;;7.01;100.00;101088.53;5048070;28;19920;-77
2022/12/04 08:13:17;;;;;;;;;;;;;;;7.02;100.00;101069.34;5049393;28;19967;-76
2022/12/04 08:15:42;;;;;;;;;;;;;;;6.96;100.00;101077.94;5031236;28;19916;-76
2022/12/04 08:18:13;;;;;;;;;;;;;;;6.93;100.00;101075.25;5035713;28;19917;-75
2022/12/04 08:20:38;;;;;;;;;;;;;;;7.03;100.00;101081.56;5048828;28;19920;-76
2022/12/04 08:23:03;;;;;;;;;;;;;;;7.15;100.00;101082.75;5047607;28;19939;-77
2022/12/04 08:25:29;;;;;;;;;;;;;;;7.13;100.00;101087.06;5030810;28;20008;-75
2022/12/04 08:27:54;;;;;;;;;;;;;;;7.01;100.00;101085.91;5029819;28;20349;-76
2022/12/04 08:30:19;;;;;;;;;;;;;;;6.93;100.00;101081.38;5028926;28;19928;-75
2022/12/04 08:32:53;;;;;;;;;;;;;;;6.91;100.00;101088.34;5026297;28;19921;-79
2022/12/04 08:35:18;;;;;;;;;;;;;;;7.00;100.00;101071.94;5029837;28;19943;-79
2022/12/04 08:37:55;;;;;;;;;;;;;;;7.04;100.00;101072.88;5027826;28;19916;-79
2022/12/04 08:40:22;;;;;;;;;;;;;;;7.15;100.00;101076.59;5045608;28;19917;-78
2022/12/04 08:42:48;;;;;;;;;;;;;;;7.17;100.00;101082.78;5046342;28;19912;-78
2022/12/04 08:45:13;;;;;;;;;;;;;;;7.17;99.83;101081.03;5047121;28;19927;-79
2022/12/04 08:47:45;;;;;;;;;;;;;;;7.06;100.00;101073.78;5048224;28;20008;-78
2022/12/04 08:50:10;;;;;;;;;;;;;;;7.03;100.00;101078.97;5030691;28;19924;-77
2022/12/04 08:52:35;;;;;;;;;;;;;;;7.08;100.00;101078.22;5048231;28;19916;-81
2022/12/04 08:55:03;;;;;;;;;;;;;;;6.99;100.00;101084.13;5049341;28;20015;-82
2022/12/04 08:57:29;;;;;;;;;;;;;;;7.09;100.00;101069.50;5040694;28;19917;-78
2022/12/04 08:59:56;;;;;;;;;;;;;;;7.10;100.00;101075.63;5034977;28;19921;-81
2022/12/04 09:02:23;;;;;;;;;;;;;;;7.03;100.00;101071.09;5046221;28;20013;-78
2022/12/04 09:04:48;;;;;;;;;;;;;;;6.99;100.00;101065.78;5048738;28;19917;-78
2022/12/04 09:07:15;;;;;;;;;;;;;;;7.04;100.00;101071.13;5048195;28;19924;-79
2022/12/04 09:09:40;;;;;;;;;;;;;;;7.13;100.00;101067.81;5010316;28;20413;-79
2022/12/04 09:12:19;;;;;;;;;;;;;;;7.17;100.00;101067.91;5050056;28;19920;-79
2022/12/04 09:14:44;;;;;;;;;;;;;;;7.24;100.00;101065.41;5057751;28;19912;-79
2022/12/04 09:17:10;;;;;;;;;;;;;;;7.15;99.48;101060.84;5032241;28;20398;-83
2022/12/04 09:19:36;;;;;;;;;;;;;;;7.04;100.00;101057.13;5067675;28;19916;-78
2022/12/04 09:22:20;;;;;;;;;;;;;;;7.00;100.00;101056.19;5043301;28;20055;-78
2022/12/04 09:25:06;;;;;;;;;;;;;;;7.18;99.68;101058.28;5042191;28;20314;-78
2022/12/04 09:27:40;;;;;;;;;;;;;;;6.98;100.00;101057.88;5044886;28;20720;-77
2022/12/04 09:30:07;;;;;;;;;;;;;;;6.97;100.00;101051.75;5031478;28;19994;-79
2022/12/04 09:32:33;;;;;;;;;;;;;;;7.18;99.83;101050.41;5046839;28;19917;-80
2022/12/04 09:35:14;;;;;;;;;;;;;;;7.06;99.49;101039.66;5047652;28;19998;-76
2022/12/04 09:37:47;;;;;;;;;;;;;;;6.92;100.00;101037.66;5046597;28;19917;-77
2022/12/04 09:40:32;;;;;;;;;;;;;;;6.86;100.00;101039.25;5046368;28;19920;-76
2022/12/04 09:43:04;;;;;;;;;;;;;;;6.94;100.00;101024.56;5042812;28;19920;-77
2022/12/04 09:45:32;;;;;;;;;;;;;;;6.85;100.00;101035.75;5046816;28;20371;-76
2022/12/04 09:48:00;;;;;;;;;;;;;;;6.95;100.00;101027.22;5028858;28;19950;-77
2022/12/04 09:50:50;;;;;;;;;;;;;;;7.17;100.00;101031.16;5047164;28;19923;-77
2022/12/04 09:53:24;;;;;;;;;;;;;;;7.02;100.00;101022.97;5034806;28;19920;-76
2022/12/04 09:55:59;;;;;;;;;;;;;;;6.95;100.00;101023.69;5028961;28;19927;-77
2022/12/04 09:58:37;;;;;;;;;;;;;;;7.08;100.00;101017.00;5045592;28;20405;-77
2022/12/04 10:01:08;;;;;;;;;;;;;;;7.15;99.74;101025.00;5042791;28;19982;-77
2022/12/04 10:03:56;;;;;;;;;;;;;;;7.27;99.46;101018.22;5039221;28;19917;-79
2022/12/04 10:06:51;;;;;;;;;;;;;;;7.07;99.31;101016.06;5040513;28;19920;-77
2022/12/04 10:09:31;;;;;;;;;;;;;;;7.19;99.61;101022.44;5036307;28;19916;-77
2022/12/04 10:12:22;;;;;;;;;;;;;;;7.07;98.92;101016.06;5031027;28;19956;-76
2022/12/04 10:15:09;;;;;;;;;;;;;;;6.90;100.00;101017.47;5008815;28;19920;-77
2022/12/04 10:17:56;;;;;;;;;;;;;;;6.82;100.00;101010.31;5012986;28;19986;-77
2022/12/04 10:20:40;;;;;;;;;;;;;;;6.87;100.00;101006.91;5047281;28;19920;-76
2022/12/04 10:23:15;;;;;;;;;;;;;;;6.81;100.00;101010.28;5044258;28;19943;-77
2022/12/04 10:25:42;;;;;;;;;;;;;;;6.94;100.00;101006.22;5044442;28;20445;-78
2022/12/04 10:28:25;;;;;;;;;;;;;;;7.15;99.16;101004.00;5046330;28;19920;-78
2022/12/04 10:30:53;;;;;;;;;;;;;;;6.97;99.47;100998.41;5029790;28;19959;-78
2022/12/04 10:33:22;;;;;;;;;;;;;;;7.04;99.49;100999.41;5045611;28;20024;-78
2022/12/04 10:35:51;;;;;;;;;;;;;;;7.03;99.57;100995.00;5034082;28;19920;-79
2022/12/04 10:38:30;;;;;;;;;;;;;;;6.89;100.00;100989.47;5046365;28;19933;-77
2022/12/04 10:41:05;;;;;;;;;;;;;;;6.91;99.66;100993.03;5046694;28;20405;-79
2022/12/04 10:43:41;;;;;;;;;;;;;;;7.08;98.35;100993.38;5044821;28;20401;-79
2022/12/04 10:46:27;;;;;;;;;;;;;;;7.22;97.68;100983.13;5044665;28;19921;-78
2022/12/04 10:48:58;;;;;;;;;;;;;;;7.26;97.41;100983.22;5045450;28;20287;-78
2022/12/04 10:51:23;;;;;;;;;;;;;;;7.23;97.57;100977.03;5027838;28;19917;-77
2022/12/04 10:53:50;;;;;;;;;;;;;;;7.25;97.69;100983.19;5046391;28;19920;-77
2022/12/04 10:56:17;;;;;;;;;;;;;;;7.34;97.01;100978.13;5036564;28;19924;-77
2022/12/04 10:58:53;;;;;;;;;;;;;;;7.25;97.46;100978.81;5036931;28;19913;-77
2022/12/04 11:01:20;;;;;;;;;;;;;;;7.24;96.98;100968.28;5044024;28;19912;-78
2022/12/04 11:03:54;;;;;;;;;;;;;;;7.15;97.44;100964.66;5038035;28;19928;-78
2022/12/04 11:06:23;;;;;;;;;;;;;;;7.21;98.04;100961.25;5023342;28;19920;-80
2022/12/04 11:08:49;;;;;;;;;;;;;;;7.28;97.26;100949.13;5045744;28;19921;-80
2022/12/04 11:11:21;;;;;;;;;;;;;;;7.46;96.68;100951.19;5046311;28;19916;-79
2022/12/04 11:13:46;;;;;;;;;;;;;;;7.21;97.72;100952.50;5022798;28;20066;-79
2022/12/04 11:16:43;;;;;;;;;;;;;;;7.24;97.69;100955.19;5046472;28;20370;-78
2022/12/04 11:19:37;;;;;;;;;;;;;;;7.21;97.87;100942.00;5022430;28;19920;-79
2022/12/04 11:22:12;;;;;;;;;;;;;;;6.99;98.39;100946.84;5044275;28;20025;-79
2022/12/04 11:24:39;;;;;;;;;;;;;;;7.20;98.76;100949.00;5046833;28;19916;-78
2022/12/04 11:27:05;;;;;;;;;;;;;;;7.33;96.45;100943.09;5019109;28;19993;-80
2022/12/04 11:29:34;;;;;;;;;;;;;;;7.25;96.30;100938.59;5040298;28;19921;-80
2022/12/04 11:32:01;;;;;;;;;;;;;;;7.14;97.16;100936.63;5026646;28;19994;-81
2022/12/04 11:34:32;;;;;;;;;;;;;;;7.24;97.49;100932.44;5026679;28;20103;-80
2022/12/04 11:36:58;;;;;;;;;;;;;;;7.31;97.09;100934.31;5035393;28;19952;-80
2022/12/04 11:39:31;;;;;;;;;;;;;;;7.21;96.63;100936.75;5042815;28;19966;-80
2022/12/04 11:42:15;;;;;;;;;;;;;;;7.09;96.88;100929.50;5035441;28;20015;-81
2022/12/04 11:45:01;;;;;;;;;;;;;;;6.93;97.09;100923.97;5040380;28;19927;-81
2022/12/04 11:47:28;;;;;;;;;;;;;;;7.08;96.48;100922.53;5038266;28;20278;-82
2022/12/04 11:50:11;;;;;;;;;;;;;;;6.98;96.61;100922.34;5042975;28;20314;-80
2022/12/04 11:52:46;;;;;;;;;;;;;;;7.10;96.12;100924.28;5050172;28;20365;-81
2022/12/04 11:55:11;;;;;;;;;;;;;;;7.10;96.35;100929.53;5049185;28;20383;-81
2022/12/04 11:57:56;;;;;;;;;;;;;;;6.98;95.68;100935.47;5026736;28;19928;-82
2022/12/04 12:00:22;;;;;;;;;;;;;;;7.19;94.66;100934.09;5030992;28;20507;-83
2022/12/04 12:03:06;;;;;;;;;;;;;;;7.10;95.37;100942.66;5047649;28;19962;-82
2022/12/04 12:05:49;;;;;;;;;;;;;;;7.17;95.07;100939.31;5049860;28;19920;-82
2022/12/04 12:08:33;;;;;;;;;;;;;;;7.09;93.88;100937.38;5036644;28;19913;-81
2022/12/04 12:11:05;;;;;;;;;;;;;;;6.98;95.08;100932.84;5033536;28;19927;-82
2022/12/04 12:13:30;;;;;;;;;;;;;;;7.02;94.81;100932.91;5063576;28;19916;-81
2022/12/04 12:15:58;;;;;;;;;;;;;;;7.18;93.30;100924.44;5068720;28;20288;-79
2022/12/04 12:18:33;;;;;;;;;;;;;;;6.97;93.44;100931.06;5068872;28;19913;-81
2022/12/04 12:20:59;;;;;;;;;;;;;;;7.03;93.88;100921.53;5048178;28;20399;-80
2022/12/04 12:23:24;;;;;;;;;;;;;;;7.07;93.31;100928.63;5048717;28;19917;-80
2022/12/04 12:26:05;;;;;;;;;;;;;;;7.14;92.73;100922.63;5048743;28;19963;-81
2022/12/04 12:28:58;;;;;;;;;;;;;;;7.20;91.84;100928.00;5048732;28;19916;-81
2022/12/04 12:31:39;;;;;;;;;;;;;;;7.40;90.92;100925.72;5030689;28;20387;-81
2022/12/04 12:34:12;;;;;;;;;;;;;;;7.42;90.20;100920.50;5047539;28;19956;-81
2022/12/04 12:36:41;;;;;;;;;;;;;;;7.23;90.63;100914.94;5047555;28;19920;-81
2022/12/04 12:39:25;;;;;;;;;;;;;;;7.47;90.26;100911.84;5048299;28;19924;-81
2022/12/04 12:41:56;;;;;;;;;;;;;;;7.49;90.14;100912.78;5048206;28;19986;-81
2022/12/04 12:44:25;;;;;;;;;;;;;;;7.59;90.02;100902.41;5048180;28;19971;-79
2022/12/04 12:46:53;;;;;;;;;;;;;;;7.55;89.45;100906.72;5042778;28;19917;-79
2022/12/04 12:49:30;;;;;;;;;;;;;;;7.53;89.30;100905.81;5048344;28;20024;-80
2022/12/04 12:52:02;;;;;;;;;;;;;;;7.60;89.04;100902.44;5040418;28;20283;-79
2022/12/04 12:54:46;;;;;;;;;;;;;;;7.52;88.39;100898.78;5048702;28;19924;-80
2022/12/04 12:57:12;;;;;;;;;;;;;;;7.68;88.36;100902.56;5048658;28;19916;-81
2022/12/04 12:59:39;;;;;;;;;;;;;;;7.46;88.37;100912.72;5046851;28;19921;-82
2022/12/04 13:02:11;;;;;;;;;;;;;;;7.41;87.07;100911.72;5046385;28;19917;-80
2022/12/04 13:04:39;;;;;;;;;;;;;;;7.34;87.07;100909.88;5010688;28;19995;-79